Time;durP1;ratioP1;P1;durP2;ratioP2;P2;SDS_P1;SDS_P2;PMS_P1;PMS_P2;Temp;Humidity;BMP_temperature;BMP_pressure;BME280_temperature;BME280_humidity;BME280_pressure;Samples;Min_cycle;Max_cycle;Signal;HPM_P1;HPM_P2
2023/03/22 00:01:10;;;;;;;7.43;2.00;;;;;;;;;;4935498;28;20045;-70
2023/03/22 00:03:38;;;;;;;7.82;2.42;;;;;;;;;;4936454;28;20030;-70
2023/03/22 00:06:07;;;;;;;8.05;2.70;;;;;;;;;;4923138;28;20439;-70
2023/03/22 00:08:38;;;;;;;9.10;2.45;;;;;;;;;;4937122;28;20308;-70
2023/03/22 00:11:08;;;;;;;7.93;2.45;;;;;;;;;;4940690;28;20354;-69
2023/03/22 00:13:36;;;;;;;8.90;2.50;;;;;;;;;;4933052;28;20034;-69
2023/03/22 00:16:04;;;;;;;7.25;2.40;;;;;;;;;;4940847;28;20074;-70
2023/03/22 00:18:32;;;;;;;6.40;1.92;;;;;;;;;;4917472;28;20125;-70
2023/03/22 00:21:00;;;;;;;6.03;1.90;;;;;;;;;;4936311;28;20428;-69
2023/03/22 00:23:29;;;;;;;5.95;1.70;;;;;;;;;;4921386;28;20124;-68
2023/03/22 00:25:56;;;;;;;6.68;1.63;;;;;;;;;;4922720;28;20293;-69
2023/03/22 00:28:23;;;;;;;;;;;;;;;;;;4939744;28;20545;-69
2023/03/22 00:30:54;;;;;;;6.13;1.60;;;;;;;;;;4936071;28;19921;-69
2023/03/22 00:33:22;;;;;;;5.13;1.42;;;;;;;;;;4938607;28;20077;-68
2023/03/22 00:35:54;;;;;;;6.18;1.40;;;;;;;;;;4916850;28;20102;-69
2023/03/22 00:38:23;;;;;;;6.10;1.65;;;;;;;;;;4922198;28;20035;-68
2023/03/22 00:40:51;;;;;;;7.95;3.40;;;;;;;;;;4931961;28;20380;-70
2023/03/22 00:43:17;;;;;;;14.15;9.13;;;;;;;;;;4935840;28;20626;-69
2023/03/22 00:45:43;;;;;;;15.23;9.70;;;;;;;;;;4931698;28;20031;-68
2023/03/22 00:48:11;;;;;;;11.95;6.38;;;;;;;;;;4942062;28;20035;-69
2023/03/22 00:50:40;;;;;;;11.57;4.00;;;;;;;;;;4918684;28;20680;-69
2023/03/22 00:53:08;;;;;;;9.40;3.58;;;;;;;;;;4922250;28;20853;-69
2023/03/22 00:55:34;;;;;;;8.98;4.10;;;;;;;;;;4933043;28;20049;-69
2023/03/22 00:58:04;;;;;;;8.75;3.40;;;;;;;;;;4931824;28;20038;-70
2023/03/22 01:00:32;;;;;;;8.98;3.08;;;;;;;;;;4934822;28;20030;-70
2023/03/22 01:03:03;;;;;;;8.15;3.08;;;;;;;;;;4922763;28;20027;-69
2023/03/22 01:05:33;;;;;;;8.27;2.92;;;;;;;;;;4932829;28;20054;-69
2023/03/22 01:08:07;;;;;;;8.43;2.40;;;;;;;;;;4937507;28;20035;-69
2023/03/22 01:10:35;;;;;;;8.00;2.30;;;;;;;;;;4929988;28;20497;-69
2023/03/22 01:13:03;;;;;;;6.18;1.77;;;;;;;;;;4907165;28;20038;-69
2023/03/22 01:15:30;;;;;;;7.45;2.10;;;;;;;;;;4918957;28;20041;-69
2023/03/22 01:17:58;;;;;;;9.05;2.38;;;;;;;;;;4915915;28;20078;-69
2023/03/22 01:20:27;;;;;;;7.63;2.60;;;;;;;;;;4932961;28;20046;-69
2023/03/22 01:22:54;;;;;;;7.78;2.28;;;;;;;;;;4887073;28;20054;-69
2023/03/22 01:25:24;;;;;;;6.25;1.77;;;;;;;;;;4935235;28;20047;-69
2023/03/22 01:27:50;;;;;;;6.55;1.83;;;;;;;;;;4891163;29;20387;-69
2023/03/22 01:30:17;;;;;;;7.10;1.88;;;;;;;;;;4896776;29;20048;-69
2023/03/22 01:32:45;;;;;;;7.72;2.50;;;;;;;;;;4893420;29;20548;-69
2023/03/22 01:35:12;;;;;;;5.90;1.67;;;;;;;;;;4870610;29;20480;-69
2023/03/22 01:37:41;;;;;;;6.90;1.60;;;;;;;;;;4877097;29;20028;-69
2023/03/22 01:40:07;;;;;;;6.53;1.77;;;;;;;;;;4896259;29;20031;-69
2023/03/22 01:42:37;;;;;;;6.82;1.90;;;;;;;;;;4892436;29;20195;-70
2023/03/22 01:45:19;;;;;;;7.32;2.30;;;;;;;;;;4898057;28;20560;-70
2023/03/22 01:47:51;;;;;;;7.75;2.35;;;;;;;;;;4892445;29;20032;-68
2023/03/22 01:50:20;;;;;;;6.57;1.90;;;;;;;;;;4897264;29;20524;-69
2023/03/22 01:52:50;;;;;;;7.40;1.83;;;;;;;;;;4879303;29;20048;-68
2023/03/22 01:55:17;;;;;;;4.72;1.50;;;;;;;;;;4896222;29;20032;-68
2023/03/22 01:57:46;;;;;;;5.60;1.55;;;;;;;;;;4873255;29;21078;-69
2023/03/22 02:00:17;;;;;;;6.45;1.40;;;;;;;;;;4895413;29;20136;-69
2023/03/22 02:02:48;;;;;;;8.25;1.98;;;;;;;;;;4891426;29;20134;-69
2023/03/22 02:05:17;;;;;;;7.47;2.03;;;;;;;;;;4895808;29;20044;-69
2023/03/22 02:07:46;;;;;;;7.85;1.90;;;;;;;;;;4890361;29;20044;-69
2023/03/22 02:10:19;;;;;;;6.13;2.20;;;;;;;;;;4881398;29;20573;-69
2023/03/22 02:12:57;;;;;;;6.45;2.20;;;;;;;;;;4893981;29;20663;-69
2023/03/22 02:15:24;;;;;;;8.20;2.70;;;;;;;;;;4894592;29;20040;-69
2023/03/22 02:18:15;;;;;;;7.05;2.22;;;;;;;;;;4902276;28;20509;-69
2023/03/22 02:20:59;;;;;;;6.25;2.13;;;;;;;;;;4933872;28;20124;-69
2023/03/22 02:23:45;;;;;;;7.43;2.00;;;;;;;;;;4932679;28;20449;-68
2023/03/22 02:26:32;;;;;;;7.70;1.80;;;;;;;;;;4928843;28;20173;-69
2023/03/22 02:29:29;;;;;;;8.73;2.65;;;;;;;;;;4917201;28;20030;-69
2023/03/22 02:32:20;;;;;;;7.15;1.83;;;;;;;;;;4869905;29;20063;-68
2023/03/22 02:35:08;;;;;;;4.53;1.55;;;;;;;;;;4855529;29;20099;-68
2023/03/22 02:37:53;;;;;;;4.78;1.58;;;;;;;;;;4860606;29;20120;-70
2023/03/22 02:40:40;;;;;;;5.38;1.50;;;;;;;;;;4872630;29;20071;-69
2023/03/22 02:43:15;;;;;;;5.97;1.70;;;;;;;;;;4871224;29;20143;-68
2023/03/22 02:45:48;;;;;;;4.10;1.40;;;;;;;;;;4867848;29;20061;-69
2023/03/22 02:48:31;;;;;;;5.53;1.90;;;;;;;;;;4855813;29;20428;-69
2023/03/22 02:51:10;;;;;;;6.65;1.92;;;;;;;;;;4870546;29;20172;-71
2023/03/22 02:53:58;;;;;;;8.43;2.70;;;;;;;;;;4866357;29;20385;-68
2023/03/22 02:56:31;;;;;;;9.85;3.33;;;;;;;;;;4861740;29;20151;-69
2023/03/22 02:59:01;;;;;;;10.73;3.10;;;;;;;;;;4858934;29;20036;-68
2023/03/22 03:01:30;;;;;;;10.60;3.40;;;;;;;;;;4860957;29;20053;-69
2023/03/22 03:04:03;;;;;;;8.10;2.80;;;;;;;;;;4870741;29;20036;-68
2023/03/22 03:06:37;;;;;;;9.00;3.20;;;;;;;;;;4867779;29;20843;-69
2023/03/22 03:09:05;;;;;;;8.38;3.33;;;;;;;;;;4908062;28;20450;-69
2023/03/22 03:11:35;;;;;;;9.93;3.65;;;;;;;;;;4932354;28;20059;-68
2023/03/22 03:14:02;;;;;;;10.65;3.10;;;;;;;;;;4932528;28;20033;-69
2023/03/22 03:16:33;;;;;;;8.45;2.97;;;;;;;;;;4913881;28;20055;-69
2023/03/22 03:19:19;;;;;;;9.48;2.83;;;;;;;;;;4935684;28;20022;-68
2023/03/22 03:21:56;;;;;;;7.60;2.75;;;;;;;;;;4930151;28;20045;-69
2023/03/22 03:24:23;;;;;;;;;;;;;;;;;;4935707;28;20049;-68
2023/03/22 03:27:08;;;;;;;7.55;2.40;;;;;;;;;;4916593;28;20327;-69
2023/03/22 03:29:54;;;;;;;5.68;1.85;;;;;;;;;;4931146;28;20047;-68
2023/03/22 03:32:27;;;;;;;6.63;1.90;;;;;;;;;;4935299;28;20093;-69
2023/03/22 03:35:21;;;;;;;5.88;1.92;;;;;;;;;;4934220;28;21625;-68
2023/03/22 03:38:09;;;;;;;6.35;2.00;;;;;;;;;;4931730;28;20038;-68
2023/03/22 03:41:00;;;;;;;7.75;2.45;;;;;;;;;;4929914;28;20816;-68
2023/03/22 03:43:26;;;;;;;6.80;2.40;;;;;;;;;;4925979;28;20271;-68
2023/03/22 03:45:56;;;;;;;7.93;2.05;;;;;;;;;;4930417;28;20046;-68
2023/03/22 03:48:24;;;;;;;6.65;2.00;;;;;;;;;;4913930;28;20038;-69
2023/03/22 03:50:53;;;;;;;6.32;2.15;;;;;;;;;;4917937;28;20046;-69
2023/03/22 03:53:21;;;;;;;7.50;2.35;;;;;;;;;;4921431;28;20303;-69
2023/03/22 03:55:49;;;;;;;7.20;2.20;;;;;;;;;;4928421;28;20102;-69
2023/03/22 03:58:18;;;;;;;5.90;2.08;;;;;;;;;;4934338;28;20023;-69
2023/03/22 04:00:46;;;;;;;3.83;1.33;;;;;;;;;;4932227;28;20500;-69
2023/03/22 04:03:14;;;;;;;5.63;1.38;;;;;;;;;;4911744;28;20499;-69
2023/03/22 04:05:42;;;;;;;3.95;1.08;;;;;;;;;;4912431;28;20201;-69
2023/03/22 04:08:11;;;;;;;5.40;1.33;;;;;;;;;;4916102;28;20042;-70
2023/03/22 04:10:38;;;;;;;2.75;1.00;;;;;;;;;;4934779;28;20619;-69
2023/03/22 04:13:05;;;;;;;4.15;1.33;;;;;;;;;;4918350;28;20047;-70
2023/03/22 04:15:31;;;;;;;4.20;1.25;;;;;;;;;;4931908;28;20093;-70
2023/03/22 04:18:01;;;;;;;4.60;1.40;;;;;;;;;;4938744;28;20652;-69
2023/03/22 04:20:30;;;;;;;4.47;1.20;;;;;;;;;;4925690;28;20057;-69
2023/03/22 04:22:59;;;;;;;5.53;1.40;;;;;;;;;;4919715;28;20693;-70
2023/03/22 04:25:28;;;;;;;4.20;1.05;;;;;;;;;;4940707;28;20038;-70
2023/03/22 04:27:59;;;;;;;3.95;1.23;;;;;;;;;;4937675;28;20319;-70
2023/03/22 04:30:34;;;;;;;5.30;1.42;;;;;;;;;;4933430;28;20054;-70
2023/03/22 04:33:14;;;;;;;5.30;1.52;;;;;;;;;;4923000;28;20050;-69
2023/03/22 04:35:45;;;;;;;4.15;1.40;;;;;;;;;;4933235;28;20055;-69
2023/03/22 04:38:12;;;;;;;6.63;1.90;;;;;;;;;;4926550;28;20441;-70
2023/03/22 04:40:45;;;;;;;5.15;1.60;;;;;;;;;;4921606;28;20054;-68
2023/03/22 04:43:17;;;;;;;6.80;2.10;;;;;;;;;;4923779;28;20134;-68
2023/03/22 04:45:47;;;;;;;5.72;1.52;;;;;;;;;;4930739;28;20112;-68
2023/03/22 04:48:16;;;;;;;4.53;1.20;;;;;;;;;;4937439;28;20038;-69
2023/03/22 04:50:44;;;;;;;5.80;1.42;;;;;;;;;;4929949;28;20054;-70
2023/03/22 04:53:13;;;;;;;4.97;1.45;;;;;;;;;;4937662;28;20105;-69
2023/03/22 04:55:44;;;;;;;4.38;1.55;;;;;;;;;;4936569;28;20037;-69
2023/03/22 04:58:21;;;;;;;4.22;1.40;;;;;;;;;;4937132;28;20454;-69
2023/03/22 05:00:58;;;;;;;2.58;1.05;;;;;;;;;;4935308;28;20089;-70
2023/03/22 05:03:24;;;;;;;4.60;1.48;;;;;;;;;;4934390;28;20038;-70
2023/03/22 05:05:55;;;;;;;5.38;1.40;;;;;;;;;;4933505;28;20046;-69
2023/03/22 05:08:23;;;;;;;5.45;1.55;;;;;;;;;;4939733;28;20614;-69
2023/03/22 05:10:55;;;;;;;6.03;1.50;;;;;;;;;;4936873;28;20141;-69
2023/03/22 05:13:27;;;;;;;4.88;1.35;;;;;;;;;;4916553;28;20027;-69
2023/03/22 05:15:53;;;;;;;6.53;1.65;;;;;;;;;;4934713;28;20178;-69
2023/03/22 05:18:25;;;;;;;6.95;1.90;;;;;;;;;;4937019;28;20057;-69
2023/03/22 05:20:55;;;;;;;5.10;1.58;;;;;;;;;;4914340;28;20027;-70
2023/03/22 05:23:27;;;;;;;6.07;1.70;;;;;;;;;;4916108;28;20474;-69
2023/03/22 05:25:57;;;;;;;6.72;2.05;;;;;;;;;;4937552;28;20430;-69
2023/03/22 05:28:27;;;;;;;7.43;2.30;;;;;;;;;;4936558;28;20039;-69
2023/03/22 05:30:56;;;;;;;9.18;2.10;;;;;;;;;;4934302;28;20366;-69
2023/03/22 05:33:23;;;;;;;8.82;2.90;;;;;;;;;;4938926;28;20043;-69
2023/03/22 05:35:51;;;;;;;6.97;1.88;;;;;;;;;;4933077;28;20042;-69
2023/03/22 05:38:18;;;;;;;5.80;1.77;;;;;;;;;;4934606;28;20085;-69
2023/03/22 05:40:45;;;;;;;6.18;1.83;;;;;;;;;;4931935;28;20491;-69
2023/03/22 05:43:13;;;;;;;6.93;1.73;;;;;;;;;;4920482;28;20026;-69
2023/03/22 05:45:40;;;;;;;6.80;1.60;;;;;;;;;;4928462;28;20035;-72
2023/03/22 05:48:08;;;;;;;5.72;1.55;;;;;;;;;;4920437;28;20101;-70
2023/03/22 05:50:35;;;;;;;8.00;1.92;;;;;;;;;;4931520;28;20034;-69
2023/03/22 05:53:02;;;;;;;6.05;1.70;;;;;;;;;;4932767;28;20038;-69
2023/03/22 05:55:31;;;;;;;13.90;4.57;;;;;;;;;;4933397;28;20596;-69
2023/03/22 05:58:04;;;;;;;9.75;3.72;;;;;;;;;;4914092;28;20513;-68
2023/03/22 06:00:33;;;;;;;7.60;2.47;;;;;;;;;;4930015;28;20034;-68
2023/03/22 06:03:02;;;;;;;7.25;2.03;;;;;;;;;;4938137;28;20070;-68
2023/03/22 06:05:35;;;;;;;7.60;1.90;;;;;;;;;;4921172;28;20461;-70
2023/03/22 06:08:05;;;;;;;7.32;1.77;;;;;;;;;;4933989;28;20469;-69
2023/03/22 06:10:31;;;;;;;7.88;1.90;;;;;;;;;;4931930;28;20039;-71
2023/03/22 06:12:59;;;;;;;7.05;2.05;;;;;;;;;;4937174;28;20069;-69
2023/03/22 06:15:25;;;;;;;7.72;1.50;;;;;;;;;;4937727;28;20053;-69
2023/03/22 06:17:52;;;;;;;7.15;1.50;;;;;;;;;;4931848;28;20424;-69
2023/03/22 06:20:20;;;;;;;6.15;1.60;;;;;;;;;;4938094;28;20026;-69
2023/03/22 06:22:47;;;;;;;6.68;1.40;;;;;;;;;;4929804;28;20025;-69
2023/03/22 06:25:14;;;;;;;4.25;1.30;;;;;;;;;;4933771;28;20745;-71
2023/03/22 06:27:43;;;;;;;4.72;1.17;;;;;;;;;;4911002;28;20407;-68
2023/03/22 06:30:11;;;;;;;6.95;1.33;;;;;;;;;;4932812;28;20524;-69
2023/03/22 06:32:38;;;;;;;5.13;1.35;;;;;;;;;;4912673;28;20497;-69
2023/03/22 06:35:06;;;;;;;9.57;1.90;;;;;;;;;;4935587;28;20119;-69
2023/03/22 06:37:32;;;;;;;5.68;1.60;;;;;;;;;;4914251;28;20049;-69
2023/03/22 06:39:59;;;;;;;6.10;1.80;;;;;;;;;;4932164;28;20575;-69
2023/03/22 06:42:29;;;;;;;6.28;1.83;;;;;;;;;;4933271;28;20643;-68
2023/03/22 06:44:59;;;;;;;7.43;2.38;;;;;;;;;;4913320;28;20492;-69
2023/03/22 06:47:27;;;;;;;6.97;2.10;;;;;;;;;;4917967;28;20551;-69
2023/03/22 06:49:56;;;;;;;6.80;2.20;;;;;;;;;;4927392;28;20462;-69
2023/03/22 06:52:23;;;;;;;17.13;10.93;;;;;;;;;;4935269;28;20493;-69
2023/03/22 06:54:50;;;;;;;20.63;16.00;;;;;;;;;;4936660;28;20069;-72
2023/03/22 06:57:18;;;;;;;28.48;21.00;;;;;;;;;;4921158;28;20035;-68
2023/03/22 06:59:44;;;;;;;46.40;37.33;;;;;;;;;;4932762;28;20442;-69
2023/03/22 07:02:15;;;;;;;48.00;38.42;;;;;;;;;;4935645;28;20444;-69
2023/03/22 07:04:47;;;;;;;53.70;43.63;;;;;;;;;;4930634;28;20423;-69
2023/03/22 07:07:15;;;;;;;43.80;33.97;;;;;;;;;;4921233;28;21464;-68
2023/03/22 07:09:44;;;;;;;27.17;19.27;;;;;;;;;;4912463;28;20031;-68
2023/03/22 07:12:13;;;;;;;20.20;12.90;;;;;;;;;;4937415;28;20042;-70
2023/03/22 07:14:40;;;;;;;16.27;9.98;;;;;;;;;;4928764;28;20038;-70
2023/03/22 07:17:06;;;;;;;17.73;8.15;;;;;;;;;;4932890;28;20093;-70
2023/03/22 07:19:33;;;;;;;;;;;;;;;;;;4924385;28;20118;-70
2023/03/22 07:22:01;;;;;;;8.50;3.53;;;;;;;;;;4931148;28;19914;-69
2023/03/22 07:24:27;;;;;;;13.75;3.00;;;;;;;;;;4932187;28;20034;-69
2023/03/22 07:26:55;;;;;;;13.95;2.70;;;;;;;;;;4916272;28;20039;-68
2023/03/22 07:29:23;;;;;;;8.10;2.08;;;;;;;;;;4927918;28;20043;-68
2023/03/22 07:31:52;;;;;;;7.85;2.38;;;;;;;;;;4933358;28;20468;-68
2023/03/22 07:34:20;;;;;;;6.57;1.88;;;;;;;;;;4934901;28;20043;-67
2023/03/22 07:36:46;;;;;;;9.27;2.83;;;;;;;;;;4929722;28;20791;-70
2023/03/22 07:39:14;;;;;;;9.18;2.97;;;;;;;;;;4934836;28;20102;-69
2023/03/22 07:41:43;;;;;;;7.68;2.60;;;;;;;;;;4933541;28;20553;-68
2023/03/22 07:44:09;;;;;;;9.77;2.30;;;;;;;;;;4927015;28;20175;-68
2023/03/22 07:46:36;;;;;;;11.70;2.00;;;;;;;;;;4914115;28;20022;-68
2023/03/22 07:49:04;;;;;;;7.70;2.00;;;;;;;;;;4907743;28;20045;-69
2023/03/22 07:51:31;;;;;;;7.80;2.42;;;;;;;;;;4933076;28;20335;-69
2023/03/22 07:54:01;;;;;;;10.05;2.00;;;;;;;;;;4946855;28;20387;-68
2023/03/22 07:56:28;;;;;;;7.35;1.70;;;;;;;;;;4943169;28;20038;-69
2023/03/22 07:58:56;;;;;;;7.63;1.77;;;;;;;;;;4944616;28;20563;-70
2023/03/22 08:01:24;;;;;;;5.97;1.60;;;;;;;;;;4940550;28;20038;-70
2023/03/22 08:03:52;;;;;;;4.18;1.00;;;;;;;;;;4941380;28;20031;-70
2023/03/22 08:06:20;;;;;;;3.95;0.80;;;;;;;;;;4940996;28;20387;-70
2023/03/22 08:08:49;;;;;;;4.93;1.00;;;;;;;;;;4941605;28;20038;-71
2023/03/22 08:11:18;;;;;;;5.13;1.10;;;;;;;;;;4939201;28;20043;-69
2023/03/22 08:13:45;;;;;;;5.20;0.90;;;;;;;;;;4942699;28;20273;-70
2023/03/22 08:16:14;;;;;;;5.40;1.00;;;;;;;;;;4946379;28;20061;-69
2023/03/22 08:18:42;;;;;;;4.63;0.90;;;;;;;;;;4939967;28;20086;-69
2023/03/22 08:21:09;;;;;;;3.30;0.90;;;;;;;;;;4924054;28;20520;-69
2023/03/22 08:23:37;;;;;;;6.88;1.40;;;;;;;;;;4926917;28;20824;-69
2023/03/22 08:26:05;;;;;;;5.78;1.33;;;;;;;;;;4902470;28;20038;-69
2023/03/22 08:28:32;;;;;;;4.75;1.23;;;;;;;;;;4884616;28;20739;-70
2023/03/22 08:31:00;;;;;;;5.38;1.08;;;;;;;;;;4901335;28;20101;-69
2023/03/22 08:33:27;;;;;;;6.15;1.10;;;;;;;;;;4900193;28;20035;-70
2023/03/22 08:36:03;;;;;;;3.00;1.02;;;;;;;;;;4900414;28;20454;-69
2023/03/22 08:38:31;;;;;;;;;;;;;;;;;;4898602;28;20031;-70
2023/03/22 08:40:59;;;;;;;;;;;;;;;;;;4902160;28;19921;-69
2023/03/22 08:43:47;;;;;;;4.90;1.38;;;;;;;;;;4899522;28;19972;-69
2023/03/22 08:46:13;;;;;;;4.57;1.00;;;;;;;;;;4902449;28;20101;-69
2023/03/22 08:48:41;;;;;;;5.70;1.40;;;;;;;;;;4898126;28;20026;-70
2023/03/22 08:51:07;;;;;;;5.90;1.60;;;;;;;;;;4900640;28;20039;-70
2023/03/22 08:53:34;;;;;;;5.55;1.60;;;;;;;;;;4898332;28;20070;-70
2023/03/22 08:56:02;;;;;;;6.63;1.38;;;;;;;;;;4899544;28;20076;-68
2023/03/22 08:58:33;;;;;;;3.97;1.00;;;;;;;;;;4898425;28;20034;-70
2023/03/22 09:01:01;;;;;;;6.07;1.10;;;;;;;;;;4912125;28;20319;-71
2023/03/22 09:03:30;;;;;;;4.35;1.17;;;;;;;;;;4926866;28;20484;-70
2023/03/22 09:05:57;;;;;;;5.22;1.10;;;;;;;;;;4918313;28;20372;-69
2023/03/22 09:08:26;;;;;;;5.38;1.27;;;;;;;;;;4936583;28;20386;-68
2023/03/22 09:10:53;;;;;;;4.60;1.10;;;;;;;;;;4940256;28;20035;-68
2023/03/22 09:13:21;;;;;;;10.82;1.88;;;;;;;;;;4939631;28;20038;-69
2023/03/22 09:15:51;;;;;;;8.05;2.58;;;;;;;;;;4939785;28;20113;-69
2023/03/22 09:18:19;;;;;;;7.82;2.45;;;;;;;;;;4944898;28;20062;-70
2023/03/22 09:20:48;;;;;;;8.77;2.13;;;;;;;;;;4935003;28;20069;-69
2023/03/22 09:23:16;;;;;;;3.85;1.13;;;;;;;;;;4941985;28;20402;-69
2023/03/22 09:25:44;;;;;;;11.45;1.80;;;;;;;;;;4906037;28;20039;-68
2023/03/22 09:28:10;;;;;;;4.25;1.10;;;;;;;;;;4936803;28;20735;-69
2023/03/22 09:30:37;;;;;;;;;;;;;;;;;;4940098;28;20034;-69
2023/03/22 09:33:05;;;;;;;6.18;1.10;;;;;;;;;;4915719;28;19921;-69
2023/03/22 09:35:35;;;;;;;4.45;1.10;;;;;;;;;;4937217;28;20379;-69
2023/03/22 09:38:05;;;;;;;4.15;0.95;;;;;;;;;;4925942;28;20023;-70
2023/03/22 09:40:33;;;;;;;5.63;1.05;;;;;;;;;;4936970;28;20102;-69
2023/03/22 09:43:02;;;;;;;5.38;1.13;;;;;;;;;;4943290;28;20470;-70
2023/03/22 09:45:39;;;;;;;4.97;1.08;;;;;;;;;;4940176;28;20364;-69
2023/03/22 09:48:33;;;;;;;6.13;1.20;;;;;;;;;;4920398;28;20486;-69
2023/03/22 09:51:02;;;;;;;5.05;1.30;;;;;;;;;;4937497;28;20557;-70
2023/03/22 09:53:32;;;;;;;6.28;1.48;;;;;;;;;;4918154;28;20204;-71
2023/03/22 09:56:03;;;;;;;5.25;1.30;;;;;;;;;;4937116;28;20038;-70
2023/03/22 09:58:47;;;;;;;4.88;1.20;;;;;;;;;;4936826;28;20093;-70
2023/03/22 10:01:36;;;;;;;3.90;1.10;;;;;;;;;;4940888;28;20097;-69
2023/03/22 10:04:25;;;;;;;6.35;1.13;;;;;;;;;;4940297;28;20026;-69
2023/03/22 10:07:00;;;;;;;5.85;1.20;;;;;;;;;;4939036;28;20027;-70
2023/03/22 10:09:31;;;;;;;3.70;0.93;;;;;;;;;;4926931;28;20817;-69
2023/03/22 10:12:06;;;;;;;7.07;1.50;;;;;;;;;;4904352;28;20102;-69
2023/03/22 10:14:35;;;;;;;5.13;1.40;;;;;;;;;;4937738;28;20327;-70
2023/03/22 10:17:05;;;;;;;5.00;1.08;;;;;;;;;;4942105;28;20042;-69
2023/03/22 10:19:50;;;;;;;7.25;1.10;;;;;;;;;;4939362;28;20118;-69
2023/03/22 10:22:19;;;;;;;6.15;0.90;;;;;;;;;;4940754;28;20027;-69
2023/03/22 10:24:49;;;;;;;2.80;0.75;;;;;;;;;;4919676;28;20153;-69
2023/03/22 10:27:19;;;;;;;3.88;1.00;;;;;;;;;;4925134;28;20391;-70
2023/03/22 10:30:05;;;;;;;4.45;1.10;;;;;;;;;;4937102;28;20536;-70
2023/03/22 10:32:38;;;;;;;4.78;0.95;;;;;;;;;;4927701;28;20046;-69
2023/03/22 10:35:07;;;;;;;4.43;1.05;;;;;;;;;;4941089;28;20038;-69
2023/03/22 10:37:35;;;;;;;9.35;1.42;;;;;;;;;;4937006;28;20031;-69
2023/03/22 10:40:07;;;;;;;5.82;1.25;;;;;;;;;;4940287;28;20434;-69
2023/03/22 10:42:36;;;;;;;4.45;1.10;;;;;;;;;;4936041;28;20019;-69
2023/03/22 10:45:06;;;;;;;5.40;1.35;;;;;;;;;;4923241;28;20443;-69
2023/03/22 10:47:52;;;;;;;4.32;1.17;;;;;;;;;;4935937;28;20035;-69
2023/03/22 10:50:28;;;;;;;5.57;1.25;;;;;;;;;;4916450;28;20050;-69
2023/03/22 10:53:10;;;;;;;6.82;1.48;;;;;;;;;;4921588;28;20588;-69
2023/03/22 10:55:43;;;;;;;5.68;1.30;;;;;;;;;;4921884;28;20150;-69
2023/03/22 10:58:17;;;;;;;8.52;1.38;;;;;;;;;;4920952;28;20035;-69
2023/03/22 11:00:53;;;;;;;3.75;1.08;;;;;;;;;;4938967;28;20804;-69
2023/03/22 11:03:36;;;;;;;4.70;1.20;;;;;;;;;;4922456;28;20042;-69
2023/03/22 11:06:22;;;;;;;5.45;1.15;;;;;;;;;;4940851;28;20046;-69
2023/03/22 11:08:57;;;;;;;5.30;1.40;;;;;;;;;;4938554;28;20112;-69
2023/03/22 11:11:28;;;;;;;5.95;1.50;;;;;;;;;;4935774;28;20924;-69
2023/03/22 11:14:13;;;;;;;5.07;1.60;;;;;;;;;;4935896;28;20034;-69
2023/03/22 11:16:45;;;;;;;4.07;1.40;;;;;;;;;;4936573;28;20062;-69
2023/03/22 11:19:21;;;;;;;3.65;1.10;;;;;;;;;;4938804;28;20059;-70
2023/03/22 11:21:49;;;;;;;7.32;1.67;;;;;;;;;;4934958;28;20031;-70
2023/03/22 11:24:18;;;;;;;7.40;1.70;;;;;;;;;;4940456;28;20057;-70
2023/03/22 11:27:01;;;;;;;4.05;1.20;;;;;;;;;;4936063;28;20067;-70
2023/03/22 11:29:29;;;;;;;4.20;1.05;;;;;;;;;;4916973;28;20398;-70
2023/03/22 11:32:00;;;;;;;5.80;1.30;;;;;;;;;;4942426;28;20031;-69
2023/03/22 11:34:30;;;;;;;5.18;1.10;;;;;;;;;;4940908;28;20783;-70
2023/03/22 11:36:59;;;;;;;5.95;1.10;;;;;;;;;;4946433;28;21012;-69
2023/03/22 11:39:29;;;;;;;5.20;1.20;;;;;;;;;;4907387;28;20034;-70
2023/03/22 11:42:02;;;;;;;5.45;1.08;;;;;;;;;;4941838;28;20138;-70
2023/03/22 11:44:36;;;;;;;4.60;0.95;;;;;;;;;;4942787;28;20419;-70
2023/03/22 11:47:04;;;;;;;4.72;1.20;;;;;;;;;;4941362;28;20545;-70
2023/03/22 11:49:38;;;;;;;5.78;1.20;;;;;;;;;;4939335;28;20460;-70
2023/03/22 11:52:14;;;;;;;6.07;1.20;;;;;;;;;;4917172;28;20492;-69
2023/03/22 11:54:44;;;;;;;4.22;0.95;;;;;;;;;;4920786;28;20871;-69
2023/03/22 11:57:17;;;;;;;5.20;1.00;;;;;;;;;;4921637;28;20568;-69
2023/03/22 11:59:51;;;;;;;5.38;1.30;;;;;;;;;;4938784;28;20041;-69
2023/03/22 12:02:25;;;;;;;5.50;1.27;;;;;;;;;;4919479;28;20145;-69
2023/03/22 12:05:00;;;;;;;7.28;1.25;;;;;;;;;;4939195;28;20039;-68
2023/03/22 12:07:28;;;;;;;2.55;0.90;;;;;;;;;;4911637;28;20873;-68
2023/03/22 12:10:25;;;;;;;6.88;1.20;;;;;;;;;;4933769;28;20319;-69
2023/03/22 12:13:00;;;;;;;5.97;1.20;;;;;;;;;;4871723;29;20069;-68
2023/03/22 12:15:32;;;;;;;5.50;1.05;;;;;;;;;;4848800;29;20154;-70
2023/03/22 12:18:23;;;;;;;5.18;1.00;;;;;;;;;;4851923;29;20282;-68
2023/03/22 12:20:57;;;;;;;8.93;1.25;;;;;;;;;;4873983;29;20040;-68
2023/03/22 12:23:26;;;;;;;5.13;1.27;;;;;;;;;;4861962;29;20390;-68
2023/03/22 12:26:00;;;;;;;6.13;1.00;;;;;;;;;;4874171;29;20241;-70
2023/03/22 12:28:34;;;;;;;4.60;0.88;;;;;;;;;;4874594;29;20547;-70
2023/03/22 12:31:02;;;;;;;4.10;0.93;;;;;;;;;;4868962;29;20044;-70
2023/03/22 12:33:32;;;;;;;2.92;1.10;;;;;;;;;;4870782;29;20547;-69
2023/03/22 12:36:01;;;;;;;4.20;0.90;;;;;;;;;;4883145;29;20524;-69
2023/03/22 12:38:34;;;;;;;4.85;0.90;;;;;;;;;;4882893;29;20032;-70
2023/03/22 12:41:04;;;;;;;7.18;1.10;;;;;;;;;;4882847;29;20639;-69
2023/03/22 12:43:49;;;;;;;5.03;0.98;;;;;;;;;;4865046;29;20036;-69
2023/03/22 12:46:22;;;;;;;5.22;1.08;;;;;;;;;;4881701;29;20208;-69
2023/03/22 12:49:11;;;;;;;5.15;0.90;;;;;;;;;;4896735;28;20452;-69
2023/03/22 12:51:42;;;;;;;6.20;1.00;;;;;;;;;;4937748;28;20269;-69
2023/03/22 12:54:14;;;;;;;4.05;1.08;;;;;;;;;;4943180;28;20441;-68
2023/03/22 12:56:44;;;;;;;2.97;0.68;;;;;;;;;;4937047;28;20140;-69
2023/03/22 12:59:23;;;;;;;4.50;0.98;;;;;;;;;;4936957;28;20146;-68
2023/03/22 13:01:52;;;;;;;3.95;1.00;;;;;;;;;;4937519;28;20035;-68
2023/03/22 13:04:34;;;;;;;10.75;1.10;;;;;;;;;;4941975;28;20039;-69
2023/03/22 13:07:11;;;;;;;5.43;1.02;;;;;;;;;;4941793;28;20038;-68
2023/03/22 13:09:47;;;;;;;5.70;1.00;;;;;;;;;;4933981;28;20026;-69
2023/03/22 13:12:21;;;;;;;5.88;1.10;;;;;;;;;;4927414;28;20121;-70
2023/03/22 13:14:50;;;;;;;7.85;1.50;;;;;;;;;;4938322;28;20037;-69
2023/03/22 13:17:26;;;;;;;5.30;1.08;;;;;;;;;;4946493;28;20033;-69
2023/03/22 13:20:00;;;;;;;6.10;1.00;;;;;;;;;;4930756;28;20027;-68
2023/03/22 13:22:42;;;;;;;4.13;0.95;;;;;;;;;;4940603;28;20197;-70
2023/03/22 13:25:18;;;;;;;3.28;0.75;;;;;;;;;;4947347;28;20045;-70
2023/03/22 13:28:05;;;;;;;4.22;1.10;;;;;;;;;;4939453;28;20118;-69
2023/03/22 13:30:53;;;;;;;4.82;0.80;;;;;;;;;;4933825;28;20058;-69
2023/03/22 13:33:35;;;;;;;4.50;1.00;;;;;;;;;;4940569;28;20046;-69
2023/03/22 13:36:21;;;;;;;3.67;1.08;;;;;;;;;;4946757;28;20031;-69
2023/03/22 13:39:01;;;;;;;6.45;1.40;;;;;;;;;;4936389;28;20041;-70
2023/03/22 13:41:58;;;;;;;3.08;0.77;;;;;;;;;;4925189;28;20143;-68
2023/03/22 13:44:46;;;;;;;5.93;0.95;;;;;;;;;;4936545;28;20147;-69
2023/03/22 13:47:32;;;;;;;3.72;0.88;;;;;;;;;;4923376;28;20035;-70
2023/03/22 13:50:15;;;;;;;4.10;0.93;;;;;;;;;;4922156;28;20237;-68
2023/03/22 13:53:13;;;;;;;4.82;0.93;;;;;;;;;;4944889;28;20101;-70
2023/03/22 13:56:09;;;;;;;7.47;1.00;;;;;;;;;;4936422;28;20442;-69
2023/03/22 13:58:51;;;;;;;6.00;1.02;;;;;;;;;;4823345;29;20045;-69
2023/03/22 14:01:34;;;;;;;3.45;0.95;;;;;;;;;;4812762;29;20060;-70
2023/03/22 14:04:08;;;;;;;4.90;0.95;;;;;;;;;;4831192;29;20971;-69
2023/03/22 14:06:58;;;;;;;4.78;0.90;;;;;;;;;;4824230;29;20041;-69
2023/03/22 14:09:32;;;;;;;4.97;1.27;;;;;;;;;;4828260;29;20092;-68
2023/03/22 14:12:04;;;;;;;6.60;1.27;;;;;;;;;;4827501;29;20572;-69
2023/03/22 14:14:42;;;;;;;4.50;0.90;;;;;;;;;;4823620;29;20138;-69
2023/03/22 14:17:27;;;;;;;4.45;0.90;;;;;;;;;;4827720;29;20541;-68
2023/03/22 14:19:57;;;;;;;6.38;1.20;;;;;;;;;;4824641;29;20110;-67
2023/03/22 14:22:32;;;;;;;5.07;0.90;;;;;;;;;;4812855;29;20068;-69
2023/03/22 14:25:09;;;;;;;7.50;0.90;;;;;;;;;;4816106;29;20391;-68
2023/03/22 14:27:37;;;;;;;4.55;1.10;;;;;;;;;;4818971;29;20884;-69
2023/03/22 14:30:04;;;;;;;4.18;0.85;;;;;;;;;;4824975;29;20574;-69
2023/03/22 14:32:37;;;;;;;4.15;1.02;;;;;;;;;;4824129;29;20131;-67
2023/03/22 14:35:18;;;;;;;2.92;0.70;;;;;;;;;;4875471;28;20047;-69
2023/03/22 14:37:49;;;;;;;5.47;0.82;;;;;;;;;;4918655;28;20836;-68
2023/03/22 14:40:29;;;;;;;6.38;0.85;;;;;;;;;;4940830;28;20449;-68
2023/03/22 14:42:56;;;;;;;6.07;1.10;;;;;;;;;;4923665;28;20532;-69
2023/03/22 14:45:25;;;;;;;4.63;1.00;;;;;;;;;;4938091;28;20125;-68
2023/03/22 14:47:54;;;;;;;4.30;0.90;;;;;;;;;;4938518;28;20485;-68
2023/03/22 14:50:22;;;;;;;3.33;0.70;;;;;;;;;;4941193;28;20051;-69
2023/03/22 14:52:49;;;;;;;4.60;0.75;;;;;;;;;;4936314;28;20495;-68
2023/03/22 14:55:23;;;;;;;4.03;0.80;;;;;;;;;;4944936;28;20027;-69
2023/03/22 14:57:56;;;;;;;5.10;1.10;;;;;;;;;;4934286;28;20444;-68
2023/03/22 15:00:26;;;;;;;3.65;0.90;;;;;;;;;;4921359;28;20716;-68
2023/03/22 15:03:18;;;;;;;5.65;0.88;;;;;;;;;;4921286;28;20050;-70
2023/03/22 15:05:45;;;;;;;5.07;0.95;;;;;;;;;;4935464;28;20571;-69
2023/03/22 15:08:20;;;;;;;4.32;0.80;;;;;;;;;;4939588;28;20030;-68
2023/03/22 15:11:09;;;;;;;3.03;0.65;;;;;;;;;;4943145;28;20053;-69
2023/03/22 15:13:38;;;;;;;5.95;0.90;;;;;;;;;;4934771;28;20019;-70